ADDS METAR Data INFO
IDs: Format: Raw Decoded Include TAF

Data at: 1600 UTC 12 Dec 2017

KCLL 121553Z 36013KT 10SM CLR 13/M01 A3038 RMK AO2 SLP287 T01281006